Overview Statistics Trail Chart Weather Telemetry Raw packets
 

This is the latest recevied weather packets stored in our database for station/object KI4KWR-1. If no packets are shown the sender has not sent any weather packets the latest 10 day(s).

<< 18 19 20 21 22 23 24 >>
Time Temp. Humidity Pressure Rain* Wind** Luminosity Snow
1788190204 31.11° C 61% 992.2 hPa 0 mm - - -
1788189303 30.56° C 65% 992.2 hPa 0 mm - - -
1788188404 30° C 68% 992.2 hPa 0 mm - - -
1788187503 28.89° C 70% 992.2 hPa 0 mm - - -
1788186604 28.33° C 72% 992.2 hPa 0 mm - - -
1788185704 27.78° C 72% 992.2 hPa 0 mm - - -
1788184803 27.22° C 74% 992.1 hPa 0 mm - - -
1788183904 26.67° C 78% 992 hPa 0 mm - - -
1788183003 25.56° C 80% 992.1 hPa 0 mm - - -
1788182104 24.44° C 83% 992 hPa 0 mm - - -
1788181204 24.44° C 85% 991.8 hPa 0 mm - - -
1788180304 23.89° C 88% 991.8 hPa 0 mm - - -
1788179404 22.78° C 90% 991.6 hPa 0 mm - - -
1788178503 22.22° C 91% 991.4 hPa 0 mm - - -
1788177604 21.11° C 92% 991.2 hPa 0 mm - - -
1788176704 20.56° C 92% 991.1 hPa 0 mm - - -
1788175804 20.56° C 92% 990.9 hPa 0 mm - - -
1788174904 20° C 91% 990.9 hPa 0 mm - - -
1788174004 20.56° C 91% 990.7 hPa 0 mm - - -
1788173104 20.56° C 91% 990.5 hPa 0 mm - - -
1788172203 20.56° C 92% 990.4 hPa 0 mm - - -
1788171304 20.56° C 92% 990.3 hPa 0 mm - - -
1788170404 20.56° C 92% 990 hPa 0 mm - - -
1788169504 20.56° C 91% 990 hPa 0 mm - - -
1788168604 20.56° C 91% 990.1 hPa 0 mm - - -

* Rain latest hour (hover to see other rain measurements)
** Current wind speed in m/s (hover to see current wind gust speed)